Time;durP1;ratioP1;P1;durP2;ratioP2;P2;SDS_P1;SDS_P2;PMS_P1;PMS_P2;Temp;Humidity;BMP_temperature;BMP_pressure;BME280_temperature;BME280_humidity;BME280_pressure;Samples;Min_cycle;Max_cycle;Signal;HPM_P1;HPM_P2
2024/01/07 00:07:27;;;;;;;20.47;11.40;;;;;;;;;;21408643;27;20665;-75
2024/01/07 00:17:29;;;;;;;17.13;11.20;;;;;;;;;;21407263;27;20291;-72
2024/01/07 00:27:31;;;;;;;19.23;11.83;;;;;;;;;;21407066;27;20204;-73
2024/01/07 00:37:34;;;;;;;17.73;9.13;;;;;;;;;;21406580;27;20200;-72
2024/01/07 00:48:18;;;;;;;12.43;8.80;;;;;;;;;;21067843;27;21123;-73
2024/01/07 00:58:20;;;;;;;17.03;11.17;;;;;;;;;;21067561;28;20224;-73
2024/01/07 01:08:23;;;;;;;25.73;14.07;;;;;;;;;;21065268;28;20304;-73
2024/01/07 01:18:25;;;;;;;20.47;10.30;;;;;;;;;;21065712;28;20313;-73
2024/01/07 01:28:27;;;;;;;12.93;8.83;;;;;;;;;;21065444;28;20242;-73
2024/01/07 01:38:29;;;;;;;13.60;9.10;;;;;;;;;;21063726;28;20296;-72
2024/01/07 01:48:32;;;;;;;14.73;9.13;;;;;;;;;;21062338;28;20222;-70
2024/01/07 01:58:34;;;;;;;14.00;9.13;;;;;;;;;;21013150;28;20328;-71
2024/01/07 02:08:36;;;;;;;13.83;8.77;;;;;;;;;;21005956;28;20235;-70
2024/01/07 02:18:41;;;;;;;10.77;8.23;;;7.30;99.90;;;;;;21003460;28;20214;-73
2024/01/07 02:28:43;;;;;;;12.87;8.47;;;;;;;;;;20972197;28;20221;-73
2024/01/07 02:38:45;;;;;;;16.70;8.63;;;;;;;;;;20963999;28;20235;-72
2024/01/07 02:48:48;;;;;;;16.23;8.30;;;;;;;;;;20920214;28;20844;-73
2024/01/07 02:59:51;;;;;;;13.03;7.57;;;;;;;;;;21476330;27;20547;-70
2024/01/07 03:09:53;;;;;;;11.03;6.90;;;;;;;;;;21353256;27;20227;-70
2024/01/07 03:19:55;;;;;;;10.93;6.77;;;;;;;;;;21407381;27;20211;-71
2024/01/07 03:29:57;;;;;;;8.73;6.30;;;;;;;;;;21406782;27;20303;-70
2024/01/07 03:39:59;;;;;;;10.27;6.23;;;;;;;;;;21407105;27;20210;-70
2024/01/07 03:50:01;;;;;;;9.17;6.30;;;;;;;;;;21403779;27;20203;-71
2024/01/07 04:00:04;;;;;;;10.77;6.57;;;;;;;;;;21333942;27;20223;-70
2024/01/07 04:10:06;;;;;;;13.03;7.27;;;;;;;;;;21266844;27;20300;-70
2024/01/07 04:21:46;;;;;;;10.47;6.47;;;7.60;97.60;;;;;;20984485;28;20535;-73
2024/01/07 04:31:49;;;;;;;10.30;6.53;;;;;;;;;;20983506;28;20304;-73
2024/01/07 04:41:51;;;;;;;8.93;6.03;;;;;;;;;;20981989;28;20214;-70
2024/01/07 04:51:53;;;;;;;10.83;6.63;;;;;;;;;;20982536;28;20296;-71
2024/01/07 05:01:56;;;;;;;10.90;6.87;;;;;;;;;;20980995;28;20214;-74
2024/01/07 05:11:58;;;;;;;8.07;5.77;;;;;;;;;;20981147;28;20293;-71
2024/01/07 05:22:00;;;;;;;10.00;5.73;;;;;;;;;;20921453;28;20215;-71
2024/01/07 05:32:03;;;;;;;8.60;5.23;;;;;;;;;;20847800;28;20568;-72
2024/01/07 05:42:06;;;;;;;8.73;5.60;;;;;;;;;;20840727;28;20207;-71
2024/01/07 05:52:08;;;;;;;9.10;5.40;;;;;;;;;;20839518;28;20327;-71
2024/01/07 06:02:10;;;;;;;8.00;5.70;;;;;;;;;;20836939;28;20216;-71
2024/01/07 06:12:12;;;;;;;9.37;6.10;;;;;;;;;;20838102;28;20243;-70
2024/01/07 06:22:15;;;;;;;9.07;5.90;;;;;;;;;;20837515;28;20705;-70
2024/01/07 06:32:17;;;;;;;10.00;6.67;;;;;;;;;;20836739;28;20667;-71
2024/01/07 06:42:19;;;;;;;8.03;5.53;;;;;;;;;;20835265;28;20575;-71
2024/01/07 06:52:21;;;;;;;9.70;5.83;;;;;;;;;;20834954;28;20777;-72
2024/01/07 07:02:23;;;;;;;10.80;5.97;;;;;;;;;;20834230;28;20220;-71
2024/01/07 07:12:26;;;;;;;9.80;5.97;;;;;;;;;;20833585;28;20239;-73
2024/01/07 07:22:28;;;;;;;8.87;5.80;;;;;;;;;;20818629;28;20206;-71
2024/01/07 07:32:30;;;;;;;7.60;4.93;;;;;;;;;;20824729;28;20259;-72
2024/01/07 07:42:32;;;;;;;7.93;4.90;;;;;;;;;;20838844;28;20262;-71
2024/01/07 07:52:34;;;;;;;6.30;4.03;;;;;;;;;;20866702;28;20229;-71
2024/01/07 08:02:37;;;;;;;8.17;4.73;;;;;;;;;;20869785;28;20649;-70
2024/01/07 08:12:39;;;;;;;7.10;4.90;;;;;;;;;;20821060;28;20570;-72
2024/01/07 08:22:41;;;;;;;7.50;4.83;;;;;;;;;;20876657;28;20215;-71
2024/01/07 08:32:43;;;;;;;7.70;5.17;;;;;;;;;;20911218;28;20239;-72
2024/01/07 08:42:46;;;;;;;7.03;4.90;;;;;;;;;;20911303;28;20250;-72
2024/01/07 08:52:48;;;;;;;7.20;4.97;;;;;;;;;;20910521;28;20253;-74
2024/01/07 09:02:50;;;;;;;8.73;5.43;;;;;;;;;;20916883;28;20210;-76
2024/01/07 09:12:53;;;;;;;7.77;5.20;;;;;;;;;;20925903;28;20635;-75
2024/01/07 09:31:02;;;;;;;8.87;5.47;;;;;;;;;;20985449;28;20562;-82
2024/01/07 09:41:05;;;;;;;11.37;5.80;;;;;;;;;;20983283;28;20647;-77
2024/01/07 09:51:08;;;;;;;6.83;5.63;;;5.90;86.10;;;;;;20982891;28;20577;-76
2024/01/07 10:01:11;;;;;;;9.37;6.50;;;;;;;;;;20952988;28;20310;-72
2024/01/07 10:11:14;;;;;;;9.87;6.80;;;5.70;85.00;;;;;;20926527;28;20244;-75
2024/01/07 10:21:16;;;;;;;10.80;6.90;;;;;;;;;;20937261;28;20212;-79
2024/01/07 10:37:53;;;;;;;9.73;6.43;;;;;;;;;;20968747;28;20583;-76
2024/01/07 10:47:58;;;;;;;10.87;6.23;;;5.40;83.50;;;;;;20901205;28;20560;-73
2024/01/07 10:58:02;;;;;;;9.13;6.20;;;5.30;83.50;;;;;;20901956;28;20216;-76
2024/01/07 11:08:15;;;;;;;11.80;6.00;;;6.40;83.80;;;;;;20900376;28;20205;-71
2024/01/07 11:18:22;;;;;;;9.40;6.30;;;5.30;82.90;;;;;;20894718;28;20200;-75
2024/01/07 11:28:52;;;;;;;9.77;6.17;;;5.20;82.30;;;;;;20861879;28;20250;-73
2024/01/07 11:38:54;;;;;;;8.80;5.67;;;;;;;;;;20897049;28;20219;-75
2024/01/07 11:48:58;;;;;;;10.90;6.23;;;5.10;82.50;;;;;;20811762;28;20238;-73
2024/01/07 11:59:01;;;;;;;10.03;5.93;;;;;;;;;;20784128;28;20214;-72
2024/01/07 12:09:03;;;;;;;8.20;5.93;;;;;;;;;;20798537;28;20249;-72
2024/01/07 12:19:05;;;;;;;8.83;5.83;;;;;;;;;;20800453;28;20654;-72
2024/01/07 12:29:09;;;;;;;8.37;5.63;;;;;;;;;;20794911;28;20244;-72
2024/01/07 12:39:12;;;;;;;9.17;5.90;;;;;;;;;;20815317;28;20211;-73
2024/01/07 12:49:14;;;;;;;8.83;5.77;;;;;;;;;;20770435;28;20709;-74
2024/01/07 12:59:16;;;;;;;7.60;5.17;;;;;;;;;;20751983;28;20569;-73
2024/01/07 13:09:18;;;;;;;8.10;5.00;;;;;;;;;;20753480;28;20655;-72
2024/01/07 13:19:20;;;;;;;9.47;5.80;;;;;;;;;;20752334;28;20233;-73
2024/01/07 13:29:24;;;;;;;9.30;4.97;;;;;;;;;;20750979;28;20257;-71
2024/01/07 13:39:26;;;;;;;7.83;4.93;;;;;;;;;;20751553;28;20257;-71
2024/01/07 13:49:28;;;;;;;8.30;5.20;;;;;;;;;;20750393;28;20291;-74
2024/01/07 13:59:30;;;;;;;7.90;4.80;;;;;;;;;;20749927;28;20212;-71
2024/01/07 14:09:33;;;;;;;6.43;4.17;;;;;;;;;;20748788;28;20241;-71
2024/01/07 14:19:35;;;;;;;6.97;4.30;;;;;;;;;;20748324;28;20544;-69
2024/01/07 14:29:37;;;;;;;8.03;4.43;;;;;;;;;;20747449;28;20237;-70
2024/01/07 14:39:39;;;;;;;8.00;4.37;;;;;;;;;;20748079;28;20572;-71
2024/01/07 14:49:42;;;;;;;6.77;4.43;;;;;;;;;;20747275;28;20723;-71
2024/01/07 15:05:16;;;;;;;8.33;4.33;;;;;;;;;;21067966;27;20594;-75
2024/01/07 15:15:20;;;;;;;6.13;4.13;;;;;;;;;;21067128;28;20298;-74
2024/01/07 15:25:22;;;;;;;5.80;3.90;;;;;;;;;;21066747;28;20272;-76
2024/01/07 15:35:25;;;;;;;6.17;3.97;;;;;;;;;;21065530;28;20209;-76
2024/01/07 15:45:27;;;;;;;4.63;3.07;;;;;;;;;;21065092;28;20210;-73
2024/01/07 15:55:29;;;;;;;4.67;3.20;;;;;;;;;;21064927;28;20208;-73
2024/01/07 16:05:33;;;;;;;6.13;4.00;;;;;;;;;;21067410;28;20216;-74
2024/01/07 16:15:35;;;;;;;5.33;3.30;;;;;;;;;;21012629;28;20207;-75
2024/01/07 16:25:38;;;;;;;4.50;2.90;;;;;;;;;;21006322;28;20328;-74
2024/01/07 16:35:42;;;;;;;5.53;2.83;;;;;;;;;;21005195;28;20292;-73
2024/01/07 16:45:44;;;;;;;3.73;2.80;;;;;;;;;;20963281;28;20214;-75
2024/01/07 16:55:47;;;;;;;3.57;2.90;;;2.50;68.30;;;;;;20918323;28;20776;-76
2024/01/07 17:05:49;;;;;;;3.37;2.57;;;;;;;;;;20917081;28;20216;-78
2024/01/07 17:15:52;;;;;;;3.20;2.37;;;;;;;;;;20917754;28;20271;-82
2024/01/07 17:25:54;;;;;;;8.73;4.00;;;;;;;;;;20938326;28;20215;-74
2024/01/07 17:35:56;;;;;;;3.10;2.20;;;;;;;;;;20958747;28;20306;-76
2024/01/07 17:46:00;;;;;;;2.50;2.20;;;;;;;;;;20939546;28;20710;-76
2024/01/07 17:56:02;;;;;;;3.10;2.50;;;;;;;;;;20973884;28;20238;-76
2024/01/07 18:06:05;;;;;;;4.17;2.60;;;;;;;;;;20996947;28;20207;-78
2024/01/07 18:16:09;;;;;;;3.33;2.40;;;;;;;;;;20944387;28;20235;-75
2024/01/07 18:26:12;;;;;;;3.93;2.70;;;;;;;;;;20987730;28;20667;-77
2024/01/07 18:36:15;;;;;;;3.70;2.50;;;;;;;;;;20995344;28;20724;-75
2024/01/07 18:46:18;;;;;;;3.33;2.60;;;;;;;;;;20943567;28;20294;-78
2024/01/07 18:56:20;;;;;;;4.73;2.50;;;;;;;;;;20995497;28;20763;-82
2024/01/07 19:06:23;;;;;;;3.13;2.40;;;;;;;;;;20988707;28;20207;-77
2024/01/07 19:16:25;;;;;;;3.50;2.33;;;;;;;;;;20992095;28;20239;-77
2024/01/07 19:26:27;;;;;;;4.47;2.60;;;3.40;65.10;;;;;;20946171;28;20215;-77
2024/01/07 19:36:32;;;;;;;3.90;2.57;;;;;;;;;;20948086;28;20625;-78
2024/01/07 19:46:35;;;;;;;4.03;1.83;;;;;;;;;;20955316;28;20207;-76
2024/01/07 19:56:37;;;;;;;3.17;2.10;;;4.40;65.80;;;;;;20958979;28;20242;-76
2024/01/07 20:06:39;;;;;;;2.87;2.00;;;;;;;;;;20955980;28;20298;-76
2024/01/07 20:16:41;;;;;;;4.73;2.57;;;;;;;;;;20961616;28;20318;-75
2024/01/07 20:26:44;;;;;;;4.33;2.30;;;;;;;;;;20960667;28;20211;-75
2024/01/07 20:36:46;;;;;;;2.80;2.23;;;;;;;;;;20956432;28;20691;-75
2024/01/07 20:46:54;;;;;;;4.93;2.90;;;;;;;;;;20969485;28;20199;-76
2024/01/07 20:56:57;;;;;;;4.03;2.90;;;;;;;;;;20963243;28;20239;-77
2024/01/07 21:06:59;;;;;;;5.00;3.17;;;;;;;;;;20952777;28;20210;-78
2024/01/07 21:17:01;;;;;;;4.20;3.00;;;;;;;;;;20957860;28;20231;-76
2024/01/07 21:27:03;;;;;;;3.57;2.93;;;;;;;;;;20950946;28;20302;-78
2024/01/07 21:37:05;;;;;;;3.70;2.80;;;;;;;;;;20935779;28;20255;-75
2024/01/07 21:47:07;;;;;;;12.57;5.57;;;;;;;;;;20913903;28;20231;-75
2024/01/07 21:57:10;;;;;;;3.00;2.40;;;;;;;;;;20913329;28;20695;-75
2024/01/07 22:07:12;;;;;;;4.60;2.90;;;;;;;;;;20912991;28;20210;-75
2024/01/07 22:17:15;;;;;;;3.93;3.17;;;;;;;;;;20912307;28;20698;-75
2024/01/07 22:27:19;;;;;;;3.67;2.90;;;;;;;;;;20911772;28;20215;-74
2024/01/07 22:37:22;;;;;;;4.07;3.00;;;;;;;;;;20911233;28;20238;-75
2024/01/07 22:47:24;;;;;;;3.50;2.80;;;;;;;;;;20910445;28;20242;-76
2024/01/07 22:57:26;;;;;;;3.50;2.60;;;;;;;;;;20909864;28;20703;-76
2024/01/07 23:07:28;;;;;;;3.67;2.70;;;;;;;;;;20912599;28;20215;-75
2024/01/07 23:17:30;;;;;;;3.37;2.63;;;;;;;;;;20915821;28;20236;-75
2024/01/07 23:27:33;;;;;;;2.90;2.60;;;;;;;;;;20924325;28;20627;-75
2024/01/07 23:37:35;;;;;;;3.10;2.30;;;;;;;;;;20933564;28;20328;-74
2024/01/07 23:47:37;;;;;;;2.73;2.10;;;;;;;;;;20926331;28;20310;-74
2024/01/07 23:57:40;;;;;;;2.40;2.00;;;;;;;;;;20925252;28;20591;-74
